Flight Track Log - Related Links

Times and Time Zones

All times are in EDT time to prevent confusion due to time zone crossing. See the N804JJ flight status page for this flight to view local times or setup timezone preferences in your user account.

Time Position Orientation Groundspeed Altitude Reporting Facility
EDT Latitude Longitude Course Direction KTS MPH feet Rate Location/Type
Tue 04:39:41 PM 40.9186 -72.2972 239° Southwest 251 289 5,700  Level Boston Center
Tue 04:40:39 PM 40.8792 -72.3853 239° Southwest 257 296 9,300 2,471 Climbing Boston Center
Tue 04:41:40 PM 40.8061 -72.4619 218° Southwest 278 320 10,600 1,721 Climbing Boston Center
Tue 04:42:41 PM 40.7289 -72.5497 221° Southwest 325 374 12,800 2,529 Climbing Boston Center
Tue 04:43:41 PM 40.6539 -72.6397 222° Southwest 361 415 15,700 2,542 Climbing Boston Center
Tue 04:44:39 PM 40.5972 -72.7461 235° Southwest 360 414 17,800 1,563 Climbing Boston Center
Tue 04:45:40 PM 40.5678 -72.8828 254° West 365 420 18,800 1,754 Climbing Boston Center
Tue 04:47:30 PM 40.5464 -73.1364 264° West 395 455 22,800 1,694 Climbing New York Center
Tue 04:48:30 PM 40.5436 -73.2756 269° West 383 441 23,600 1,000 Climbing New York Center
Tue 04:49:30 PM 40.5050 -73.4214 251° West 396 456 24,800 1,550 Climbing New York Center
Tue 04:50:30 PM 40.4661 -73.5644 250° West 408 470 26,700 1,650 Climbing New York Center
Tue 04:51:30 PM 40.4253 -73.7019 249° West 413 475 28,100 1,350 Climbing New York Center
Tue 04:52:30 PM 40.3908 -73.8258 250° West 418 481 29,400 1,350 Climbing New York Center
Tue 04:53:30 PM 40.3517 -73.9683 250° West 418 481 30,800 1,450 Climbing New York Center
Tue 04:54:30 PM 40.3289 -74.1089 258° West 411 473 32,300 1,200 Climbing New York Center
Tue 04:55:30 PM 40.3667 -74.2469 290° West 390 449 33,200 550 Climbing New York Center
Tue 04:56:30 PM 40.3664 -74.3967 270° West 395 455 33,400 300 Climbing New York Center
Tue 04:57:30 PM 40.3325 -74.5447 253° West 413 475 33,800 250 Climbing New York Center
Tue 04:58:30 PM 40.3044 -74.7008 257° West 424 488 33,900 100 Climbing New York Center
Tue 04:59:30 PM 40.2742 -74.8597 256° West 446 513 34,000 50 Climbing New York Center
Tue 05:00:30 PM 40.2425 -75.0400 257° West 463 533 34,000  Level New York Center
Tue 05:01:30 PM 40.2117 -75.2014 256° West 468 539 34,000  Level New York Center
Tue 05:02:30 PM 40.1761 -75.3647 254° West 468 539 34,000  Level New York Center
Tue 05:03:30 PM 40.0939 -75.4950 231° Southwest 462 532 34,000  Level New York Center
Tue 05:04:30 PM 40.0133 -75.6306 232° Southwest 468 539 34,000  Level New York Center
Tue 05:05:30 PM 39.9328 -75.7656 232° Southwest 475 547 34,000  Level New York Center
Tue 05:06:30 PM 39.8519 -75.8978 231° Southwest 480 552 34,000  Level New York Center
Tue 05:08:02 PM 39.7397 -76.0853 232° Southwest 480 552 34,000  Level Washington Center
Tue 05:09:00 PM 39.6600 -76.2194 232° Southwest 475 547 34,000  Level Washington Center
Tue 05:10:01 PM 39.5800 -76.3536 232° Southwest 475 547 34,000  Level Washington Center
Tue 05:11:01 PM 39.4997 -76.4872 232° Southwest 480 552 34,000  Level Washington Center
Tue 05:12:01 PM 39.4156 -76.6150 230° Southwest 480 552 34,000  Level Washington Center
Tue 05:13:02 PM 39.3286 -76.7614 233° Southwest 480 552 34,000  Level Washington Center
Tue 05:14:00 PM 39.2483 -76.8889 231° Southwest 474 545 34,000  Level Washington Center
Tue 05:15:01 PM 39.1675 -77.0211 232° Southwest 474 545 34,000  Level Washington Center
Tue 05:16:01 PM 39.0889 -77.1508 232° Southwest 474 545 34,000  Level Washington Center
Tue 05:17:02 PM 39.0058 -77.2825 231° Southwest 474 545 34,000  Level Washington Center
Tue 05:18:00 PM 38.9267 -77.4089 231° Southwest 469 540 34,000  Level Washington Center
Tue 05:19:01 PM 38.8436 -77.5347 230° Southwest 469 540 34,000  Level Washington Center
Tue 05:20:02 PM 38.7642 -77.6683 233° Southwest 469 540 34,000  Level Washington Center
Tue 05:21:00 PM 38.6825 -77.7989 231° Southwest 474 545 34,000  Level Washington Center
Tue 05:22:00 PM 38.6008 -77.9319 232° Southwest 474 545 34,000  Level Washington Center
Tue 05:23:01 PM 38.5339 -78.0494 234° Southwest 474 545 34,000  Level Washington Center
Tue 05:24:02 PM 38.4539 -78.1819 232° Southwest 474 545 34,000  Level Washington Center
Tue 05:25:00 PM 38.3781 -78.3117 233° Southwest 474 545 34,000  Level Washington Center
Tue 05:26:00 PM 38.3000 -78.4439 233° Southwest 474 545 34,000  Level Washington Center
Tue 05:27:01 PM 38.2172 -78.5914 234° Southwest 469 540 34,000  Level Washington Center
Tue 05:28:01 PM 38.1389 -78.7203 232° Southwest 469 540 34,000  Level Washington Center
Tue 05:29:01 PM 38.0689 -78.8361 233° Southwest 469 540 34,000  Level Washington Center
Tue 05:30:02 PM 37.9903 -78.9669 233° Southwest 475 547 34,000  Level Washington Center
Tue 05:31:02 PM 37.9072 -79.1003 232° Southwest 475 547 34,000  Level Washington Center
Tue 05:32:00 PM 37.8133 -79.2350 229° Southwest 475 547 34,000  Level Washington Center
Tue 05:33:00 PM 37.7264 -79.3569 228° Southwest 475 547 34,000  Level Washington Center
Tue 05:34:01 PM 37.6436 -79.4656 226° Southwest 475 547 34,000  Level Washington Center
Tue 05:35:02 PM 37.5475 -79.5969 227° Southwest 481 554 34,000  Level Washington Center
Tue 05:36:02 PM 37.4667 -79.7053 227° Southwest 475 547 34,000  Level Washington Center
Tue 05:37:00 PM 37.3678 -79.8489 229° Southwest 485 558 34,000  Level Washington Center
Tue 05:39:21 PM 37.1553 -80.1275 226° Southwest 462 532 34,000  Level Atlanta Center
Tue 05:40:21 PM 37.0672 -80.2464 227° Southwest 462 532 34,000  Level Atlanta Center
Tue 05:41:21 PM 36.9792 -80.3647 227° Southwest 462 532 34,000  Level Atlanta Center
Tue 05:42:21 PM 36.8989 -80.4725 227° Southwest 467 537 34,000  Level Atlanta Center
Tue 05:43:21 PM 36.8086 -80.5906 226° Southwest 467 537 34,000  Level Atlanta Center
Tue 05:44:21 PM 36.7142 -80.7189 227° Southwest 459 528 34,000  Level Atlanta Center
Tue 05:45:21 PM 36.6256 -80.8364 227° Southwest 464 534 34,000  Level Atlanta Center
Tue 05:46:21 PM 36.5347 -80.9564 227° Southwest 464 534 34,000  Level Atlanta Center
Tue 05:47:21 PM 36.4478 -81.0706 227° Southwest 458 527 34,000  Level Atlanta Center
Tue 05:48:21 PM 36.3611 -81.1897 228° Southwest 463 533 34,000  Level Atlanta Center
Tue 05:49:21 PM 36.2719 -81.3039 226° Southwest 463 533 34,000  Level Atlanta Center
Tue 05:50:21 PM 36.1847 -81.4225 228° Southwest 463 533 34,000  Level Atlanta Center
Tue 05:51:21 PM 36.0933 -81.5386 226° Southwest 463 533 34,000  Level Atlanta Center
Tue 05:52:21 PM 36.0058 -81.6489 226° Southwest 456 525 34,000  Level Atlanta Center
Tue 05:53:21 PM 35.9183 -81.7669 228° Southwest 461 531 34,000  Level Atlanta Center
Tue 05:54:21 PM 35.8286 -81.8822 226° Southwest 461 531 34,000  Level Atlanta Center
Tue 05:55:21 PM 35.7389 -81.9944 225° Southwest 461 531 34,000  Level Atlanta Center
Tue 05:56:21 PM 35.6508 -82.1067 226° Southwest 461 531 34,000  Level Atlanta Center
Tue 05:57:21 PM 35.5608 -82.2211 226° Southwest 461 531 34,000  Level Atlanta Center
Tue 05:58:21 PM 35.4831 -82.3197 226° Southwest 456 525 34,000 -650 Level Atlanta Center
Tue 05:59:21 PM 35.4075 -82.4514 235° Southwest 466 536 32,700 -1,500 Descending Atlanta Center
Tue 06:00:21 PM 35.3217 -82.5956 234° Southwest 472 543 31,000 -1,700 Descending Atlanta Center
Tue 06:01:21 PM 35.2500 -82.7164 234° Southwest 483 556 29,300 -2,600 Descending Atlanta Center
Tue 06:02:21 PM 35.1722 -82.8497 235° Southwest 488 562 25,800 -2,400 Descending Atlanta Center
Tue 06:03:21 PM 35.0897 -82.9778 232° Southwest 488 562 24,500 -1,350 Descending Atlanta Center
Tue 06:04:21 PM 35.0178 -83.1056 236° Southwest 481 554 23,100 -1,550 Descending Atlanta Center
Tue 06:05:21 PM 34.9414 -83.2281 233° Southwest 475 547 21,400 -1,800 Descending Atlanta Center
Tue 06:06:21 PM 34.8631 -83.3553 233° Southwest 475 547 19,500 -1,600 Descending Atlanta Center
Tue 06:07:21 PM 34.7844 -83.4875 234° Southwest 481 554 18,200 -1,350 Descending Atlanta Center
Tue 06:08:21 PM 34.7056 -83.6117 232° Southwest 457 526 16,800 -1,300 Descending Atlanta Center
Tue 06:09:21 PM 34.6244 -83.7081 224° Southwest 431 496 15,600 -1,650 Descending Atlanta Center
Tue 06:10:21 PM 34.5433 -83.8042 224° Southwest 407 468 13,500 -2,250 Descending Atlanta Center
Tue 06:11:21 PM 34.4683 -83.8928 224° Southwest 391 450 11,100 -2,000 Descending Atlanta Center
Tue 06:12:21 PM 34.4078 -83.9633 224° Southwest 361 415 9,500 -1,500 Descending Atlanta Center
Tue 06:13:21 PM 34.3514 -84.0311 225° Southwest 305 351 8,100 -750 Descending Atlanta Center
Tue 06:14:21 PM 34.2847 -84.0867 215° Southwest 290 334 8,000 -450 Descending Atlanta Center
Tue 06:15:21 PM 34.2283 -84.1569 226° Southwest 297 342 7,200 -850 Descending Atlanta Center
Tue 06:16:21 PM 34.1906 -84.2247 236° Southwest 287 330 6,300 -1,200 Descending Atlanta Center
Tue 06:17:21 PM 34.1550 -84.3050 242° Southwest 275 316 4,800 -1,243 Descending Atlanta Center
Tue 06:18:12 PM 34.1167 -84.3667 233° Southwest 264 304 4,000 -500 Descending Atlanta TRACON
Tue 06:19:21 PM 34.0817 -84.4603 246° West 270 311 3,800 -465 Descending Atlanta Center
Tue 06:20:21 PM 34.0561 -84.5428 250° West 270 311 3,000 -500 Descending Atlanta Center
Tue 06:21:21 PM 34.0517 -84.6181 266° West 248 285 2,800 -386 Descending Atlanta Center
Tue 06:23:12 PM 33.9833 -84.6333 191° South 138 159 1,900 -316 Descending Atlanta TRACON
Tue 06:24:12 PM 33.9833 -84.6333 320° Northwest 138 159 1,900  Level Atlanta TRACON

Login

Don't have an account? Register now (free) for customized features, flight alerts, and more!